Time;durP1;ratioP1;P1;durP2;ratioP2;P2;SDS_P1;SDS_P2;PMS_P1;PMS_P2;Temp;Humidity;BMP_temperature;BMP_pressure;BME280_temperature;BME280_humidity;BME280_pressure;Samples;Min_cycle;Max_cycle;Signal;HPM_P1;HPM_P2
2023/04/20 00:01:52;;;;;;;6.45;2.50;;;10.00;50.40;;;;;;5009745;28;20054;-69
2023/04/20 00:04:20;;;;;;;6.15;2.40;;;9.90;50.50;;;;;;5009644;28;20699;-69
2023/04/20 00:06:48;;;;;;;6.60;2.67;;;9.90;50.70;;;;;;5004230;28;20075;-69
2023/04/20 00:09:15;;;;;;;5.53;2.20;;;9.80;50.90;;;;;;4989393;28;20497;-69
2023/04/20 00:11:42;;;;;;;6.97;2.35;;;9.80;51.00;;;;;;4996622;28;20050;-69
2023/04/20 00:14:10;;;;;;;4.60;2.13;;;9.80;51.10;;;;;;5024234;28;20046;-69
2023/04/20 00:16:37;;;;;;;5.65;2.25;;;9.80;51.20;;;;;;5007317;28;20060;-69
2023/04/20 00:19:06;;;;;;;5.63;2.20;;;9.80;51.30;;;;;;5006846;28;20050;-69
2023/04/20 00:21:32;;;;;;;7.93;2.63;;;9.80;51.50;;;;;;5005487;28;20129;-69
2023/04/20 00:23:59;;;;;;;4.75;2.00;;;9.70;51.60;;;;;;5015656;28;20051;-69
2023/04/20 00:26:30;;;;;;;4.30;1.90;;;9.70;51.70;;;;;;5001238;28;20509;-69
2023/04/20 00:28:58;;;;;;;4.90;2.20;;;9.70;51.80;;;;;;4988105;28;20051;-69
2023/04/20 00:31:26;;;;;;;5.22;2.00;;;9.70;51.90;;;;;;5015744;28;20242;-69
2023/04/20 00:33:53;;;;;;;5.30;2.00;;;9.70;52.10;;;;;;5007414;28;20109;-69
2023/04/20 00:36:20;;;;;;;4.70;1.85;;;9.60;52.20;;;;;;5007570;28;20572;-69
2023/04/20 00:38:47;;;;;;;5.65;2.10;;;9.60;52.40;;;;;;4998260;28;20051;-69
2023/04/20 00:41:14;;;;;;;5.45;2.05;;;9.60;52.50;;;;;;4990727;28;20047;-69
2023/04/20 00:43:50;;;;;;;5.07;1.98;;;9.60;52.50;;;;;;5007749;28;20061;-69
2023/04/20 00:46:17;;;;;;;5.43;1.70;;;9.60;52.60;;;;;;5006392;28;20054;-69
2023/04/20 00:48:45;;;;;;;5.05;2.22;;;9.60;52.80;;;;;;5007519;28;20528;-69
2023/04/20 00:51:13;;;;;;;6.05;1.83;;;9.60;53.00;;;;;;5004612;28;20058;-69
2023/04/20 00:53:40;;;;;;;4.60;1.60;;;9.60;53.00;;;;;;5009200;28;20137;-69
2023/04/20 00:56:08;;;;;;;4.03;1.83;;;9.60;53.20;;;;;;4984435;28;20046;-69
2023/04/20 00:58:35;;;;;;;6.10;1.80;;;9.60;53.40;;;;;;5002685;28;20497;-69
2023/04/20 01:01:02;;;;;;;4.90;1.90;;;9.60;53.50;;;;;;5007012;28;20070;-69
2023/04/20 01:03:29;;;;;;;4.68;1.63;;;9.60;53.60;;;;;;5007418;28;20050;-69
2023/04/20 01:05:58;;;;;;;4.97;1.88;;;9.60;53.70;;;;;;5007271;28;20047;-69
2023/04/20 01:08:26;;;;;;;4.07;1.52;;;9.60;53.80;;;;;;5006654;28;20058;-69
2023/04/20 01:10:53;;;;;;;5.93;1.70;;;9.60;54.00;;;;;;5006311;28;20050;-69
2023/04/20 01:13:20;;;;;;;5.13;1.70;;;9.60;54.20;;;;;;5007128;28;20125;-69
2023/04/20 01:15:47;;;;;;;4.57;1.60;;;9.60;54.20;;;;;;4990329;28;20050;-69
2023/04/20 01:18:16;;;;;;;5.35;1.90;;;9.60;54.50;;;;;;4996101;28;20142;-69
2023/04/20 01:20:43;;;;;;;5.55;1.83;;;9.60;54.50;;;;;;4990067;28;20058;-69
2023/04/20 01:23:12;;;;;;;5.07;1.73;;;9.60;54.70;;;;;;5006895;28;20070;-69
2023/04/20 01:25:39;;;;;;;5.97;1.80;;;9.60;54.70;;;;;;5005022;28;20042;-69
2023/04/20 01:28:06;;;;;;;4.60;1.80;;;9.60;54.90;;;;;;5008485;28;20062;-69
2023/04/20 01:30:34;;;;;;;5.75;1.60;;;9.60;54.80;;;;;;5006245;28;20048;-69
2023/04/20 01:33:03;;;;;;;4.53;1.70;;;9.60;54.90;;;;;;5006890;28;20055;-69
2023/04/20 01:35:30;;;;;;;5.50;1.70;;;9.70;55.00;;;;;;4995413;28;20137;-69
2023/04/20 01:37:57;;;;;;;4.85;1.70;;;9.70;55.00;;;;;;5006904;28;20384;-69
2023/04/20 01:40:25;;;;;;;4.18;1.60;;;9.70;55.00;;;;;;5006095;28;20723;-69
2023/04/20 01:42:52;;;;;;;5.25;1.70;;;9.70;55.10;;;;;;5004704;28;20512;-69
2023/04/20 01:45:22;;;;;;;4.88;1.63;;;9.70;55.10;;;;;;4988956;28;20141;-69
2023/04/20 01:47:51;;;;;;;4.73;1.53;;;9.70;55.10;;;;;;5006492;28;20042;-69
2023/04/20 01:50:18;;;;;;;4.90;1.38;;;9.70;55.10;;;;;;5005963;28;20046;-69
2023/04/20 01:52:45;;;;;;;4.88;1.50;;;9.70;55.10;;;;;;4996198;28;20497;-69
2023/04/20 01:55:11;;;;;;;6.18;1.73;;;9.70;55.20;;;;;;5006477;28;20133;-69
2023/04/20 01:57:40;;;;;;;4.30;1.60;;;9.70;55.10;;;;;;5023263;28;20070;-69
2023/04/20 02:00:09;;;;;;;4.97;1.67;;;9.70;55.10;;;;;;5004639;28;20078;-69
2023/04/20 02:02:41;;;;;;;4.95;1.52;;;9.70;55.10;;;;;;5007784;28;20137;-69
2023/04/20 02:05:08;;;;;;;4.28;1.50;;;9.70;55.10;;;;;;4990139;28;20050;-69
2023/04/20 02:07:35;;;;;;;4.10;1.35;;;9.70;55.00;;;;;;4990225;28;20100;-69
2023/04/20 02:10:03;;;;;;;4.07;1.40;;;9.70;55.00;;;;;;4976635;28;20552;-69
2023/04/20 02:12:30;;;;;;;4.07;1.33;;;9.70;55.10;;;;;;5006045;28;20129;-69
2023/04/20 02:14:59;;;;;;;6.18;2.00;;;9.70;55.10;;;;;;4990239;28;20105;-69
2023/04/20 02:17:26;;;;;;;5.68;1.55;;;9.70;55.10;;;;;;5005829;28;20062;-69
2023/04/20 02:19:53;;;;;;;3.72;1.20;;;9.70;55.20;;;;;;5003368;28;20050;-69
2023/04/20 02:22:20;;;;;;;5.57;1.27;;;9.70;55.20;;;;;;5006471;28;20081;-69
2023/04/20 02:24:47;;;;;;;4.43;1.30;;;9.70;55.20;;;;;;5006290;28;20275;-69
2023/04/20 02:27:14;;;;;;;4.93;1.20;;;9.70;55.30;;;;;;5007319;28;20058;-69
2023/04/20 02:29:41;;;;;;;5.53;1.55;;;9.60;55.30;;;;;;5006551;28;20064;-70
2023/04/20 02:32:10;;;;;;;4.60;1.33;;;9.60;55.30;;;;;;5009214;28;20050;-69
2023/04/20 02:34:36;;;;;;;4.35;1.58;;;9.60;55.30;;;;;;5008283;28;20129;-69
2023/04/20 02:37:03;;;;;;;4.30;1.40;;;9.60;55.30;;;;;;4993573;28;20463;-69
2023/04/20 02:39:30;;;;;;;5.07;1.70;;;9.60;55.20;;;;;;5006787;28;20068;-69
2023/04/20 02:41:57;;;;;;;3.80;1.13;;;9.70;55.30;;;;;;5008601;28;20054;-69
2023/04/20 02:44:24;;;;;;;5.13;1.35;;;9.70;55.40;;;;;;4991687;28;20539;-69
2023/04/20 02:46:51;;;;;;;4.70;1.30;;;9.60;55.40;;;;;;4991828;28;20050;-69
2023/04/20 02:49:20;;;;;;;7.67;1.50;;;9.70;55.40;;;;;;5007738;28;20077;-69
2023/04/20 02:51:47;;;;;;;4.97;1.50;;;9.60;55.50;;;;;;5009121;28;20105;-70
2023/04/20 02:54:14;;;;;;;4.53;1.40;;;9.60;55.50;;;;;;4990611;28;20057;-69
2023/04/20 02:56:42;;;;;;;5.75;1.30;;;9.70;55.70;;;;;;4987269;28;20327;-69
2023/04/20 02:59:10;;;;;;;3.92;1.38;;;9.70;55.70;;;;;;5020875;28;20172;-69
2023/04/20 03:02:13;;;;;;;4.33;1.30;;;9.70;55.80;;;;;;4990763;28;20145;-69
2023/04/20 03:04:41;;;;;;;4.43;1.40;;;9.70;56.00;;;;;;4990145;28;20053;-69
2023/04/20 03:07:20;;;;;;;5.75;1.70;;;9.70;56.20;;;;;;4989524;28;20057;-69
2023/04/20 03:09:48;;;;;;;5.15;1.42;;;9.70;56.30;;;;;;4989692;28;20077;-70
2023/04/20 03:12:33;;;;;;;4.82;1.50;;;9.70;56.20;;;;;;5002761;28;20062;-70
2023/04/20 03:15:20;;;;;;;5.00;1.40;;;9.70;56.30;;;;;;5007539;28;20069;-70
2023/04/20 03:18:07;;;;;;;4.10;1.48;;;9.60;56.20;;;;;;4985706;28;20584;-69
2023/04/20 03:20:36;;;;;;;4.47;1.30;;;9.70;56.30;;;;;;4991307;28;20090;-69
2023/04/20 03:23:03;;;;;;;5.32;1.52;;;9.70;56.20;;;;;;5005461;28;20047;-69
2023/04/20 03:25:31;;;;;;;5.75;1.70;;;9.70;56.30;;;;;;5002997;28;20528;-69
2023/04/20 03:27:59;;;;;;;4.70;1.33;;;9.70;56.40;;;;;;5004887;28;20055;-69
2023/04/20 03:30:26;;;;;;;4.93;1.67;;;9.60;56.50;;;;;;5006661;28;20054;-69
2023/04/20 03:33:01;;;;;;;7.07;1.77;;;9.60;56.40;;;;;;5006561;28;20057;-69
2023/04/20 03:35:29;;;;;;;4.47;1.60;;;9.60;56.30;;;;;;4987135;28;20070;-69
2023/04/20 03:37:57;;;;;;;7.70;1.58;;;9.60;56.30;;;;;;4990685;28;20046;-69
2023/04/20 03:40:25;;;;;;;5.53;1.57;;;9.60;56.10;;;;;;5007619;28;20133;-69
2023/04/20 03:42:53;;;;;;;5.30;1.45;;;9.60;56.10;;;;;;5007396;28;20054;-69
2023/04/20 03:45:21;;;;;;;4.05;1.40;;;9.60;55.90;;;;;;4990842;28;20109;-69
2023/04/20 03:47:49;;;;;;;5.80;1.50;;;9.60;55.70;;;;;;5008962;28;20054;-69
2023/04/20 03:50:16;;;;;;;5.38;1.60;;;9.60;55.80;;;;;;5007891;28;20097;-69
2023/04/20 03:52:43;;;;;;;5.60;1.50;;;9.60;55.50;;;;;;4991476;28;20134;-69
2023/04/20 03:55:12;;;;;;;4.22;1.60;;;9.60;55.30;;;;;;4999417;28;20046;-69
2023/04/20 03:57:45;;;;;;;4.72;1.30;;;9.60;55.40;;;;;;4991369;28;20043;-69
2023/04/20 04:00:13;;;;;;;4.22;1.73;;;9.50;55.40;;;;;;4987629;28;20520;-69
2023/04/20 04:02:49;;;;;;;4.18;1.40;;;9.60;55.60;;;;;;4989431;28;20165;-69
2023/04/20 04:05:25;;;;;;;6.30;1.80;;;9.60;55.50;;;;;;5008183;28;21036;-69
2023/04/20 04:07:52;;;;;;;6.38;1.63;;;9.60;55.50;;;;;;4991701;28;20096;-69
2023/04/20 04:10:21;;;;;;;4.18;1.50;;;9.60;55.70;;;;;;4989898;28;20101;-69
2023/04/20 04:12:49;;;;;;;5.70;1.60;;;9.60;55.90;;;;;;4988394;28;20628;-69
2023/04/20 04:15:18;;;;;;;4.93;1.60;;;9.50;55.80;;;;;;5008259;28;20054;-69
2023/04/20 04:17:51;;;;;;;4.40;1.47;;;9.50;56.20;;;;;;5007639;28;20073;-69
2023/04/20 04:20:18;;;;;;;9.00;1.77;;;9.50;56.50;;;;;;5021952;28;20061;-69
2023/04/20 04:22:45;;;;;;;5.75;1.60;;;9.60;56.70;;;;;;5005798;28;20142;-69
2023/04/20 04:25:29;;;;;;;4.43;1.50;;;9.60;56.90;;;;;;5003964;28;20097;-69
2023/04/20 04:27:56;;;;;;;6.53;1.67;;;9.60;57.00;;;;;;5003661;28;20053;-69
2023/04/20 04:30:24;;;;;;;6.27;1.90;;;9.60;57.10;;;;;;5008045;28;20054;-69
2023/04/20 04:32:52;;;;;;;4.97;1.40;;;9.60;57.30;;;;;;5007509;28;20047;-69
2023/04/20 04:35:19;;;;;;;5.38;1.70;;;9.50;57.60;;;;;;4991283;28;20072;-69
2023/04/20 04:37:46;;;;;;;4.68;1.70;;;9.50;57.80;;;;;;4988902;28;20570;-69
2023/04/20 04:40:15;;;;;;;5.40;1.80;;;9.50;58.20;;;;;;5006990;28;20050;-69
2023/04/20 04:42:44;;;;;;;5.67;1.80;;;9.40;58.50;;;;;;5008144;28;20338;-69
2023/04/20 04:45:13;;;;;;;6.07;1.77;;;9.50;58.70;;;;;;4988720;28;20088;-69
2023/04/20 04:47:42;;;;;;;5.40;1.60;;;9.40;58.80;;;;;;4987286;28;20100;-69
2023/04/20 04:50:10;;;;;;;5.95;2.00;;;9.40;59.10;;;;;;5007291;28;20054;-69
2023/04/20 04:52:37;;;;;;;4.63;1.85;;;9.40;59.30;;;;;;5007281;28;20057;-69
2023/04/20 04:55:07;;;;;;;4.37;1.50;;;9.40;59.50;;;;;;5020947;28;20061;-69
2023/04/20 04:57:34;;;;;;;5.95;1.60;;;9.40;59.60;;;;;;5007313;28;20576;-70
2023/04/20 05:00:03;;;;;;;5.78;1.58;;;9.40;59.60;;;;;;5023552;28;20059;-69
2023/04/20 05:02:31;;;;;;;4.72;1.52;;;9.30;59.80;;;;;;5003743;28;20050;-69
2023/04/20 05:04:59;;;;;;;4.57;1.83;;;9.30;59.90;;;;;;5007096;28;20105;-69
2023/04/20 05:07:26;;;;;;;5.00;1.70;;;9.20;60.30;;;;;;5008851;28;20054;-69
2023/04/20 05:09:53;;;;;;;7.15;1.73;;;9.20;60.30;;;;;;5023400;28;20839;-69
2023/04/20 05:12:20;;;;;;;6.03;2.00;;;9.20;60.30;;;;;;5008840;28;20212;-69
2023/04/20 05:14:47;;;;;;;5.70;1.40;;;9.20;60.50;;;;;;5008161;28;20599;-69
2023/04/20 05:17:15;;;;;;;5.30;1.75;;;9.20;60.50;;;;;;4990733;28;20052;-69
2023/04/20 05:19:42;;;;;;;6.33;1.77;;;9.20;60.70;;;;;;5003127;28;20142;-68
2023/04/20 05:22:09;;;;;;;4.32;1.55;;;9.20;60.60;;;;;;5000090;28;20057;-69
2023/04/20 05:24:36;;;;;;;6.43;1.63;;;9.20;60.60;;;;;;5008276;28;20543;-69
2023/04/20 05:27:04;;;;;;;4.80;1.50;;;9.20;60.50;;;;;;5005869;28;20055;-69
2023/04/20 05:29:31;;;;;;;3.90;1.40;;;9.20;60.40;;;;;;5021955;28;20054;-69
2023/04/20 05:31:58;;;;;;;4.97;1.60;;;9.20;60.50;;;;;;5005312;28;20081;-69
2023/04/20 05:34:27;;;;;;;4.45;1.45;;;9.20;60.50;;;;;;5013176;28;20046;-69
2023/04/20 05:36:55;;;;;;;4.45;1.60;;;9.20;60.70;;;;;;4983563;28;20533;-69
2023/04/20 05:39:23;;;;;;;5.22;1.88;;;9.20;60.70;;;;;;5000098;28;20062;-69
2023/04/20 05:41:50;;;;;;;5.63;1.42;;;9.20;60.80;;;;;;5001111;28;20106;-69
2023/04/20 05:44:17;;;;;;;3.93;1.53;;;9.20;60.80;;;;;;5002626;28;20101;-69
2023/04/20 05:46:44;;;;;;;4.85;1.73;;;9.20;60.80;;;;;;5006397;28;20058;-69
2023/04/20 05:49:11;;;;;;;6.35;1.52;;;9.20;60.80;;;;;;5000007;28;20055;-69
2023/04/20 05:51:41;;;;;;;4.10;1.60;;;9.20;60.90;;;;;;5001960;28;20057;-69
2023/04/20 05:54:09;;;;;;;5.18;1.45;;;9.20;60.90;;;;;;5007279;28;20078;-69
2023/04/20 05:56:36;;;;;;;4.37;1.60;;;9.20;61.10;;;;;;5004979;28;20129;-69
2023/04/20 05:59:03;;;;;;;5.70;1.58;;;9.20;61.10;;;;;;5004760;28;20046;-69
2023/04/20 06:01:30;;;;;;;4.30;1.63;;;9.20;61.20;;;;;;5004454;28;20050;-69
2023/04/20 06:03:57;;;;;;;4.60;1.40;;;9.20;61.20;;;;;;5002651;28;20152;-69
2023/04/20 06:06:25;;;;;;;3.65;1.30;;;9.20;61.20;;;;;;5000552;28;20926;-69
2023/04/20 06:08:54;;;;;;;5.17;1.50;;;9.20;61.30;;;;;;5007286;28;20066;-69
2023/04/20 06:11:21;;;;;;;6.38;1.80;;;9.10;61.30;;;;;;5005836;28;20047;-69
2023/04/20 06:13:48;;;;;;;4.35;1.73;;;9.10;61.40;;;;;;5007249;28;20053;-69
2023/04/20 06:16:15;;;;;;;5.30;1.70;;;9.10;61.40;;;;;;5006751;28;20125;-69
2023/04/20 06:18:42;;;;;;;4.60;1.77;;;9.00;61.40;;;;;;5003761;28;20060;-69
2023/04/20 06:21:10;;;;;;;3.90;1.53;;;9.00;61.60;;;;;;5004441;28;20146;-69
2023/04/20 06:23:37;;;;;;;4.05;1.30;;;9.00;61.60;;;;;;5007192;28;20054;-69
2023/04/20 06:26:07;;;;;;;4.90;1.63;;;9.00;61.60;;;;;;5019707;28;20062;-69
2023/04/20 06:28:35;;;;;;;4.20;1.52;;;9.00;61.80;;;;;;5007143;28;20523;-69
2023/04/20 06:31:02;;;;;;;5.53;1.70;;;9.00;61.90;;;;;;5000922;28;20058;-69
2023/04/20 06:33:29;;;;;;;4.90;1.47;;;9.00;62.00;;;;;;5003689;28;20082;-69
2023/04/20 06:35:56;;;;;;;7.65;1.70;;;9.00;62.10;;;;;;5001883;28;20050;-69
2023/04/20 06:38:24;;;;;;;5.72;1.77;;;9.00;62.20;;;;;;4994287;28;20069;-69
2023/04/20 06:40:52;;;;;;;4.93;1.65;;;9.00;62.50;;;;;;5001833;28;20050;-69
2023/04/20 06:43:20;;;;;;;6.75;1.88;;;9.00;62.50;;;;;;5000741;28;20524;-69
2023/04/20 06:45:47;;;;;;;5.40;1.63;;;9.00;62.60;;;;;;5000230;28;20054;-69
2023/04/20 06:48:15;;;;;;;4.60;1.70;;;9.00;62.80;;;;;;5017930;28;20046;-69
2023/04/20 06:50:42;;;;;;;5.50;1.83;;;8.90;62.90;;;;;;5017331;28;20084;-69
2023/04/20 06:53:09;;;;;;;5.47;1.85;;;8.90;63.20;;;;;;5003402;28;20142;-69
2023/04/20 06:55:36;;;;;;;5.28;2.13;;;8.70;63.20;;;;;;5002707;28;20825;-69
2023/04/20 06:58:04;;;;;;;4.53;1.87;;;8.60;63.40;;;;;;5004858;28;20526;-69
2023/04/20 07:00:32;;;;;;;4.10;1.70;;;8.60;63.70;;;;;;4999514;28;20055;-69
2023/04/20 07:03:00;;;;;;;4.63;1.88;;;8.50;63.80;;;;;;5004045;28;20057;-69
2023/04/20 07:05:27;;;;;;;4.88;1.90;;;8.50;63.80;;;;;;5018434;28;20057;-69
2023/04/20 07:07:54;;;;;;;4.85;1.85;;;8.40;64.20;;;;;;5003658;28;20547;-69
2023/04/20 07:10:22;;;;;;;7.13;2.00;;;8.40;64.20;;;;;;5001820;28;20047;-69
2023/04/20 07:12:49;;;;;;;6.28;1.80;;;8.40;64.40;;;;;;5020564;28;20476;-69
2023/04/20 07:15:16;;;;;;;5.00;2.00;;;8.40;64.50;;;;;;4998456;28;20107;-69
2023/04/20 07:17:44;;;;;;;5.20;1.90;;;8.40;64.70;;;;;;5004207;28;20050;-69
2023/04/20 07:20:12;;;;;;;4.60;1.80;;;8.50;64.70;;;;;;5003673;28;20054;-69
2023/04/20 07:22:39;;;;;;;4.40;1.77;;;8.50;65.00;;;;;;5004240;28;20057;-69
2023/04/20 07:25:08;;;;;;;6.05;1.90;;;8.50;65.30;;;;;;5023517;28;20051;-69
2023/04/20 07:27:37;;;;;;;5.60;2.17;;;8.50;65.60;;;;;;5006610;28;20050;-69
2023/04/20 07:30:05;;;;;;;6.03;2.00;;;8.40;65.50;;;;;;5006982;28;20129;-69
2023/04/20 07:32:32;;;;;;;4.25;1.77;;;8.50;65.50;;;;;;5000908;28;20046;-69
2023/04/20 07:35:01;;;;;;;4.67;1.77;;;8.50;65.80;;;;;;5021048;28;20046;-69
2023/04/20 07:37:28;;;;;;;6.30;2.17;;;8.50;65.80;;;;;;5004715;28;20059;-69
2023/04/20 07:39:55;;;;;;;5.65;2.20;;;8.50;66.40;;;;;;5005271;28;20086;-69
2023/04/20 07:42:22;;;;;;;5.07;2.30;;;8.50;66.20;;;;;;4974153;28;21341;-69
2023/04/20 07:44:50;;;;;;;5.10;1.95;;;8.50;66.50;;;;;;4957513;28;20207;-69
2023/04/20 07:47:17;;;;;;;6.57;2.20;;;8.50;66.80;;;;;;4983145;28;20053;-69
2023/04/20 07:49:44;;;;;;;6.32;2.17;;;8.50;66.80;;;;;;5000086;28;20133;-69
2023/04/20 07:52:13;;;;;;;5.65;2.28;;;8.50;67.10;;;;;;5006504;28;20057;-69
2023/04/20 07:54:40;;;;;;;7.95;2.03;;;8.50;66.90;;;;;;5003435;28;20148;-69
2023/04/20 07:57:08;;;;;;;5.35;2.63;;;8.60;66.80;;;;;;5005540;28;20141;-69
2023/04/20 08:02:46;;;;;;;5.28;2.25;;;8.60;67.10;;;;;;4984514;28;20501;-69
2023/04/20 08:05:13;;;;;;;5.38;2.10;;;8.60;67.10;;;;;;4986140;28;20043;-69
2023/04/20 08:07:41;;;;;;;7.13;2.33;;;8.70;67.10;;;;;;5001934;28;20848;-69
2023/04/20 08:10:09;;;;;;;6.18;2.75;;;8.70;67.30;;;;;;4983963;28;20074;-69
2023/04/20 08:12:38;;;;;;;6.37;2.47;;;8.80;67.50;;;;;;4982128;28;20157;-70
2023/04/20 08:15:06;;;;;;;5.93;2.30;;;8.80;67.60;;;;;;4985273;28;20058;-69
2023/04/20 08:17:33;;;;;;;6.45;2.67;;;8.80;67.70;;;;;;4999071;28;20055;-69
2023/04/20 08:20:00;;;;;;;7.63;2.80;;;8.80;67.70;;;;;;5001425;28;20046;-69
2023/04/20 08:22:28;;;;;;;6.80;2.53;;;8.80;67.80;;;;;;4984451;28;20051;-70
2023/04/20 08:24:57;;;;;;;9.77;2.73;;;8.90;67.90;;;;;;4984563;28;20110;-70
2023/04/20 08:27:24;;;;;;;10.18;3.13;;;8.90;68.10;;;;;;4985750;28;20579;-68
2023/04/20 08:29:51;;;;;;;6.47;2.92;;;8.90;68.30;;;;;;4983652;28;20050;-70
2023/04/20 08:32:21;;;;;;;7.07;3.00;;;8.90;68.20;;;;;;5001759;28;20081;-70
2023/04/20 08:34:48;;;;;;;7.45;2.63;;;8.90;68.20;;;;;;4999519;28;20114;-69
2023/04/20 08:37:15;;;;;;;8.27;3.10;;;9.00;68.40;;;;;;4985784;28;20134;-69
2023/04/20 08:39:43;;;;;;;6.00;2.88;;;9.00;68.40;;;;;;4986301;28;20102;-69
2023/04/20 08:42:11;;;;;;;8.38;3.22;;;9.00;68.20;;;;;;4987906;28;20137;-69
2023/04/20 08:44:38;;;;;;;7.25;3.03;;;9.00;68.30;;;;;;5000739;28;20106;-69
2023/04/20 08:47:05;;;;;;;8.23;3.30;;;9.10;68.20;;;;;;4983676;28;20149;-70
2023/04/20 08:49:33;;;;;;;8.70;3.50;;;9.20;68.20;;;;;;4987664;28;20043;-69
2023/04/20 08:52:00;;;;;;;8.27;3.45;;;9.20;68.40;;;;;;5000736;28;20162;-69
2023/04/20 08:54:27;;;;;;;6.88;3.00;;;9.20;68.30;;;;;;4985001;28;20501;-70
2023/04/20 08:56:55;;;;;;;8.15;3.20;;;9.20;68.50;;;;;;4986619;28;20138;-70
2023/04/20 08:59:24;;;;;;;8.05;3.00;;;9.20;68.60;;;;;;4983674;28;20043;-69
2023/04/20 09:01:51;;;;;;;7.17;3.10;;;9.20;68.70;;;;;;4985892;28;20046;-69
2023/04/20 09:04:19;;;;;;;10.02;3.05;;;9.20;69.00;;;;;;4982257;28;21002;-69
2023/04/20 09:06:48;;;;;;;7.40;3.40;;;9.20;68.90;;;;;;4983292;28;20145;-69
2023/04/20 09:09:16;;;;;;;7.57;2.83;;;9.10;69.00;;;;;;4983037;28;21049;-69
2023/04/20 09:11:43;;;;;;;7.70;3.05;;;9.10;68.80;;;;;;4981423;28;20051;-70
2023/04/20 09:14:12;;;;;;;8.80;3.63;;;9.10;68.90;;;;;;4986420;28;20055;-70
2023/04/20 09:16:49;;;;;;;8.68;3.00;;;9.10;68.90;;;;;;4986780;28;20416;-70
2023/04/20 09:19:22;;;;;;;9.60;3.22;;;9.10;69.00;;;;;;4981425;28;20053;-70
2023/04/20 09:21:50;;;;;;;8.88;3.83;;;9.10;69.00;;;;;;4979289;28;20867;-69
2023/04/20 09:24:17;;;;;;;6.28;3.20;;;9.10;69.30;;;;;;4981139;28;20505;-69
2023/04/20 09:26:44;;;;;;;8.60;3.60;;;9.10;69.30;;;;;;4984702;28;20078;-69
2023/04/20 09:29:17;;;;;;;5.82;3.10;;;9.10;69.80;;;;;;4982948;28;20061;-68
2023/04/20 09:31:46;;;;;;;8.48;3.47;;;9.10;69.90;;;;;;4980962;28;20090;-69
2023/04/20 09:34:14;;;;;;;8.10;3.55;;;9.10;69.80;;;;;;4982281;28;20806;-68
2023/04/20 09:36:43;;;;;;;8.43;3.50;;;9.10;69.80;;;;;;4982005;28;20078;-69
2023/04/20 09:39:12;;;;;;;8.17;3.67;;;9.20;69.70;;;;;;4979139;28;20043;-69
2023/04/20 09:41:40;;;;;;;6.15;2.88;;;9.20;69.80;;;;;;4985022;28;20117;-69
2023/04/20 09:44:08;;;;;;;7.55;3.22;;;9.20;69.60;;;;;;4982333;28;20794;-69
2023/04/20 09:46:39;;;;;;;7.03;4.05;;;9.20;69.60;;;;;;4983931;28;20776;-68
2023/04/20 09:49:09;;;;;;;8.30;3.55;;;9.20;69.70;;;;;;4977921;28;20129;-70
2023/04/20 09:51:40;;;;;;;8.20;3.30;;;9.30;69.70;;;;;;4983948;28;20081;-69
2023/04/20 09:54:08;;;;;;;7.85;3.72;;;9.40;69.90;;;;;;4977989;28;20952;-69
2023/04/20 09:56:35;;;;;;;10.50;4.38;;;9.40;69.70;;;;;;4983713;28;20905;-70
2023/04/20 09:59:03;;;;;;;9.57;4.05;;;9.40;70.00;;;;;;4997957;28;20103;-69
2023/04/20 10:01:33;;;;;;;8.38;3.70;;;9.40;70.20;;;;;;4983674;28;20058;-69
2023/04/20 10:04:01;;;;;;;7.00;3.43;;;9.40;70.50;;;;;;4981418;28;20055;-69
2023/04/20 10:06:31;;;;;;;10.07;3.65;;;9.40;70.20;;;;;;4982584;28;20047;-69
2023/04/20 10:09:00;;;;;;;8.00;4.00;;;9.50;70.10;;;;;;4983574;28;20496;-69
2023/04/20 10:11:29;;;;;;;9.55;4.30;;;9.50;70.10;;;;;;4983309;28;20047;-69
2023/04/20 10:13:57;;;;;;;12.30;4.10;;;9.50;70.10;;;;;;4981958;28;20166;-69
2023/04/20 10:16:25;;;;;;;9.13;4.10;;;9.50;70.30;;;;;;4983525;28;20058;-70
2023/04/20 10:19:00;;;;;;;7.47;3.05;;;9.50;70.10;;;;;;4983147;28;20058;-70
2023/04/20 10:21:28;;;;;;;8.30;4.00;;;9.60;69.90;;;;;;4997621;28;20058;-70
2023/04/20 10:23:57;;;;;;;8.20;3.70;;;9.50;69.90;;;;;;4988203;28;20884;-70
2023/04/20 10:26:36;;;;;;;9.02;4.10;;;9.50;70.00;;;;;;4997242;28;20051;-69
2023/04/20 10:29:05;;;;;;;8.53;4.40;;;9.50;70.20;;;;;;4983139;28;20667;-70
2023/04/20 10:31:37;;;;;;;8.20;4.28;;;9.50;70.20;;;;;;4998285;28;20505;-70
2023/04/20 10:34:04;;;;;;;8.88;4.90;;;9.50;70.40;;;;;;4996581;28;20102;-70
2023/04/20 10:36:32;;;;;;;8.60;5.20;;;9.60;70.70;;;;;;4983605;28;20835;-70
2023/04/20 10:39:03;;;;;;;8.73;4.38;;;9.60;71.00;;;;;;4983654;28;20055;-70
2023/04/20 10:41:31;;;;;;;8.83;4.67;;;9.60;71.30;;;;;;4984565;28;20058;-70
2023/04/20 10:44:07;;;;;;;8.20;4.70;;;9.70;71.30;;;;;;4981509;28;20054;-70
2023/04/20 10:46:34;;;;;;;8.27;4.82;;;9.80;71.50;;;;;;4999698;28;20054;-70
2023/04/20 10:49:02;;;;;;;9.10;4.72;;;9.90;71.50;;;;;;4983990;28;20058;-70
2023/04/20 10:51:30;;;;;;;9.27;4.97;;;10.00;71.50;;;;;;4989620;28;20125;-69
2023/04/20 10:54:04;;;;;;;8.90;5.40;;;10.00;71.90;;;;;;4985697;28;20146;-70
2023/04/20 10:56:39;;;;;;;8.63;4.82;;;10.10;71.50;;;;;;4988346;28;20055;-70
2023/04/20 10:59:06;;;;;;;9.23;5.30;;;10.10;71.10;;;;;;5001124;28;20047;-69
2023/04/20 11:01:33;;;;;;;9.20;4.78;;;10.10;70.70;;;;;;4987320;28;20046;-70
2023/04/20 11:04:01;;;;;;;9.85;5.40;;;10.10;70.30;;;;;;4982192;28;20098;-70
2023/04/20 11:06:28;;;;;;;9.30;5.20;;;10.10;70.20;;;;;;4983532;28;20094;-69
2023/04/20 11:08:55;;;;;;;8.88;5.13;;;10.10;70.40;;;;;;4981702;28;20733;-70
2023/04/20 11:11:26;;;;;;;10.27;5.30;;;10.10;70.50;;;;;;4976066;28;20058;-70
2023/04/20 11:14:05;;;;;;;11.50;6.70;;;10.20;70.80;;;;;;4983303;28;20055;-70
2023/04/20 11:16:32;;;;;;;11.50;6.07;;;10.20;71.20;;;;;;4988578;28;20047;-70
2023/04/20 11:18:59;;;;;;;10.50;6.37;;;10.30;71.30;;;;;;4986008;28;20134;-70
2023/04/20 11:21:36;;;;;;;10.27;6.13;;;10.40;71.20;;;;;;4988601;28;20055;-70
2023/04/20 11:24:03;;;;;;;11.45;6.22;;;10.50;71.20;;;;;;5004013;28;20082;-70
2023/04/20 11:26:36;;;;;;;11.10;6.07;;;10.50;71.00;;;;;;4989115;28;20146;-70
2023/04/20 11:29:04;;;;;;;10.80;6.50;;;10.60;70.80;;;;;;4982913;28;20882;-70
2023/04/20 11:31:31;;;;;;;12.17;6.90;;;10.70;70.60;;;;;;4985749;28;20047;-70
2023/04/20 11:33:58;;;;;;;10.70;6.80;;;10.70;70.70;;;;;;4988333;28;21117;-70
2023/04/20 11:36:27;;;;;;;10.75;6.13;;;10.80;70.40;;;;;;4990086;28;20051;-70
2023/04/20 11:38:54;;;;;;;10.68;5.82;;;10.80;70.20;;;;;;4987296;28;20051;-70
2023/04/20 11:41:22;;;;;;;10.48;6.25;;;10.90;70.20;;;;;;4986722;28;20145;-70
2023/04/20 11:43:50;;;;;;;10.17;6.63;;;10.90;69.90;;;;;;4986759;28;20113;-70
2023/04/20 11:46:19;;;;;;;11.32;6.03;;;11.00;69.30;;;;;;4986666;28;20139;-70
2023/04/20 11:48:47;;;;;;;12.13;7.05;;;11.00;69.10;;;;;;4986995;28;20051;-71
2023/04/20 11:51:15;;;;;;;12.80;5.82;;;11.00;69.00;;;;;;4987442;28;20074;-70
2023/04/20 11:53:42;;;;;;;9.93;6.55;;;11.10;69.20;;;;;;4985134;28;20054;-70
2023/04/20 11:56:09;;;;;;;12.80;6.43;;;11.10;69.20;;;;;;4984098;28;20057;-70
2023/04/20 11:58:37;;;;;;;12.43;6.32;;;11.20;69.30;;;;;;4986103;28;20059;-70
2023/04/20 12:01:05;;;;;;;12.38;6.05;;;11.30;69.30;;;;;;4986114;28;20054;-70
2023/04/20 12:03:32;;;;;;;10.02;5.28;;;11.40;68.70;;;;;;5002289;28;20057;-70
2023/04/20 12:06:00;;;;;;;9.65;5.68;;;11.40;68.40;;;;;;4984475;28;20057;-70
2023/04/20 12:08:27;;;;;;;9.40;6.17;;;11.50;68.10;;;;;;5003335;28;20186;-70
2023/04/20 12:10:54;;;;;;;9.93;5.70;;;11.50;68.20;;;;;;4984330;28;20138;-70
2023/04/20 12:13:21;;;;;;;12.00;6.10;;;11.50;68.20;;;;;;5003014;28;20489;-70
2023/04/20 12:15:48;;;;;;;11.63;6.10;;;11.50;67.90;;;;;;4983707;28;20115;-70
2023/04/20 12:18:16;;;;;;;9.80;5.70;;;11.60;67.60;;;;;;4981615;28;20083;-70
2023/04/20 12:20:44;;;;;;;10.60;5.83;;;11.70;67.30;;;;;;4983228;28;20050;-70
2023/04/20 12:23:11;;;;;;;9.32;5.55;;;11.70;66.60;;;;;;5001162;28;20054;-70
2023/04/20 12:25:38;;;;;;;10.38;5.55;;;11.70;66.20;;;;;;4984195;28;20063;-70
2023/04/20 12:28:06;;;;;;;9.52;5.65;;;11.70;65.70;;;;;;4983057;28;20130;-70
2023/04/20 12:30:34;;;;;;;10.68;6.38;;;11.70;65.70;;;;;;4984353;28;20055;-70
2023/04/20 12:33:02;;;;;;;8.70;5.50;;;11.70;65.70;;;;;;4986380;28;20134;-70
2023/04/20 12:35:30;;;;;;;9.15;5.68;;;11.70;65.60;;;;;;4987026;28;20054;-70
2023/04/20 12:37:57;;;;;;;8.73;5.45;;;11.70;65.20;;;;;;4982191;28;20085;-70
2023/04/20 12:40:25;;;;;;;8.63;5.50;;;11.70;64.40;;;;;;4981767;28;20560;-70
2023/04/20 12:42:52;;;;;;;10.10;5.68;;;11.70;64.30;;;;;;4989838;28;20062;-70
2023/04/20 12:45:19;;;;;;;12.70;6.17;;;11.60;64.20;;;;;;4984294;28;20134;-70
2023/04/20 12:47:46;;;;;;;9.57;5.60;;;11.50;64.70;;;;;;4984987;28;20912;-70
2023/04/20 12:50:13;;;;;;;11.77;6.15;;;11.50;65.00;;;;;;4981364;28;20078;-70
2023/04/20 12:52:41;;;;;;;9.35;5.32;;;11.50;65.30;;;;;;4989431;28;20050;-70
2023/04/20 12:55:10;;;;;;;11.18;6.43;;;11.50;65.90;;;;;;4983050;28;20051;-70
2023/04/20 12:57:37;;;;;;;12.00;6.30;;;11.50;65.90;;;;;;4989260;28;20496;-70
2023/04/20 13:00:05;;;;;;;11.93;6.38;;;11.50;65.70;;;;;;4982165;28;20983;-71
2023/04/20 13:02:32;;;;;;;10.23;6.35;;;11.50;65.90;;;;;;4980414;28;20054;-71